createdAt,value
2022-10-29T00:01:01.347Z,16.01
2022-10-29T00:03:28.330Z,15.99
2022-10-29T00:06:11.663Z,15.94
2022-10-29T00:08:41.585Z,15.97
2022-10-29T00:11:18.492Z,15.97
2022-10-29T00:14:50.655Z,15.95
2022-10-29T00:17:26.624Z,15.95
2022-10-29T00:19:53.686Z,15.92
2022-10-29T00:25:39.720Z,15.87
2022-10-29T00:28:08.687Z,15.91
2022-10-29T00:30:36.137Z,15.91
2022-10-29T00:33:05.702Z,15.93
2022-10-29T00:35:42.092Z,15.94
2022-10-29T00:38:27.692Z,15.88
2022-10-29T00:40:57.765Z,15.91
2022-10-29T00:43:30.114Z,15.86
2022-10-29T00:46:14.419Z,15.85
2022-10-29T00:50:10.966Z,15.82
2022-10-29T00:55:15.927Z,15.71
2022-10-29T00:57:55.710Z,15.73
2022-10-29T01:00:44.095Z,15.76
2022-10-29T01:06:32.675Z,15.76
2022-10-29T01:10:00.978Z,15.73
2022-10-29T01:17:18.032Z,15.62
2022-10-29T01:23:01.112Z,15.61
2022-10-29T01:26:05.907Z,15.57
2022-10-29T01:28:54.011Z,15.59
2022-10-29T01:31:59.585Z,15.56
2022-10-29T01:34:36.113Z,15.56
2022-10-29T01:37:10.472Z,15.60
2022-10-29T01:39:50.489Z,15.57
2022-10-29T01:42:21.842Z,15.52
2022-10-29T01:45:12.730Z,15.47
2022-10-29T01:47:42.212Z,15.37
2022-10-29T01:50:40.227Z,15.44
2022-10-29T01:53:07.624Z,15.35
2022-10-29T01:55:37.470Z,15.33
2022-10-29T01:58:05.477Z,15.38
2022-10-29T02:01:00.662Z,15.25
2022-10-29T02:03:36.780Z,15.30
2022-10-29T02:06:07.551Z,15.34
2022-10-29T02:08:41.930Z,15.34
2022-10-29T02:11:18.188Z,15.28
2022-10-29T02:13:52.109Z,15.29
2022-10-29T02:16:41.684Z,15.30
2022-10-29T02:19:10.724Z,15.28
2022-10-29T02:21:45.406Z,15.26
2022-10-29T02:24:12.906Z,15.27
2022-10-29T02:26:39.712Z,15.28
2022-10-29T02:29:06.699Z,15.23
2022-10-29T02:34:25.317Z,15.06
2022-10-29T02:38:16.692Z,15.05
2022-10-29T02:40:23.677Z,14.94
2022-10-29T02:43:03.786Z,14.91
2022-10-29T02:48:27.934Z,14.87
2022-10-29T02:50:55.122Z,14.89
2022-10-29T02:53:22.341Z,14.89
2022-10-29T02:55:49.146Z,14.89
2022-10-29T02:58:15.850Z,14.93
2022-10-29T03:00:42.525Z,14.93
2022-10-29T03:03:11.402Z,14.97
2022-10-29T03:05:38.129Z,14.93
2022-10-29T03:08:05.100Z,14.90
2022-10-29T03:10:38.389Z,14.90
2022-10-29T03:13:07.768Z,14.84
2022-10-29T03:15:34.430Z,14.87
2022-10-29T03:18:01.092Z,14.81
2022-10-29T03:20:30.137Z,14.77
2022-10-29T03:22:59.445Z,14.77
2022-10-29T03:25:31.501Z,14.81
2022-10-29T03:27:58.817Z,14.84
2022-10-29T03:30:25.727Z,14.86
2022-10-29T03:32:52.858Z,14.81
2022-10-29T03:35:19.725Z,14.80
2022-10-29T03:37:49.683Z,14.80
2022-10-29T03:40:16.461Z,14.79
2022-10-29T03:42:43.092Z,14.80
2022-10-29T03:45:10.757Z,14.80
2022-10-29T03:47:37.940Z,14.76
2022-10-29T03:50:05.137Z,14.76
2022-10-29T03:52:31.877Z,14.73
2022-10-29T03:54:58.671Z,14.66
2022-10-29T03:57:25.477Z,14.61
2022-10-29T03:59:52.780Z,14.70
2022-10-29T04:02:21.147Z,14.74
2022-10-29T04:04:50.942Z,14.73
2022-10-29T04:07:26.680Z,14.71
2022-10-29T04:10:01.115Z,14.74
2022-10-29T04:12:52.764Z,14.66
2022-10-29T04:15:22.993Z,14.62
2022-10-29T04:18:10.490Z,14.62
2022-10-29T04:21:29.289Z,14.65
2022-10-29T04:28:58.592Z,14.59
2022-10-29T04:31:25.399Z,14.57
2022-10-29T04:33:55.271Z,14.59
2022-10-29T04:36:21.976Z,14.59
2022-10-29T04:38:50.410Z,14.57
2022-10-29T04:41:17.148Z,14.58
2022-10-29T04:43:43.858Z,14.51
2022-10-29T04:46:11.294Z,14.54
2022-10-29T04:48:38.220Z,14.49
2022-10-29T04:51:05.518Z,14.44
2022-10-29T04:53:32.248Z,14.46
2022-10-29T04:56:05.705Z,14.45
2022-10-29T04:58:32.495Z,14.47
2022-10-29T05:01:06.294Z,14.51
2022-10-29T05:03:33.589Z,14.45
2022-10-29T05:06:04.059Z,14.47
2022-10-29T05:08:30.861Z,14.41
2022-10-29T05:10:57.669Z,14.40
2022-10-29T05:13:24.350Z,14.45
2022-10-29T05:15:54.838Z,14.44
2022-10-29T05:18:21.663Z,14.42
2022-10-29T05:20:55.553Z,14.39
2022-10-29T05:23:22.429Z,14.42
2022-10-29T05:25:51.405Z,14.40
2022-10-29T05:28:20.178Z,14.42
2022-10-29T05:30:48.589Z,14.42
2022-10-29T05:33:17.398Z,14.43
2022-10-29T05:35:44.608Z,14.42
2022-10-29T05:38:12.694Z,14.44
2022-10-29T05:40:39.942Z,14.41
2022-10-29T05:43:06.640Z,14.40
2022-10-29T05:45:33.514Z,14.38
2022-10-29T05:48:01.904Z,14.40
2022-10-29T05:50:29.785Z,14.42
2022-10-29T05:53:01.228Z,14.41
2022-10-29T05:55:29.135Z,14.39
2022-10-29T05:57:57.339Z,14.34
2022-10-29T06:00:25.079Z,14.29
2022-10-29T06:02:51.905Z,14.31
2022-10-29T06:05:18.761Z,14.30
2022-10-29T06:07:45.520Z,14.28
2022-10-29T06:10:12.331Z,14.25
2022-10-29T06:12:38.993Z,14.28
2022-10-29T06:15:06.317Z,14.26
2022-10-29T06:17:35.408Z,14.22
2022-10-29T06:20:02.108Z,14.21
2022-10-29T06:22:36.133Z,14.20
2022-10-29T06:26:03.598Z,14.09
2022-10-29T06:32:41.909Z,14.00
2022-10-29T06:35:11.052Z,13.98
2022-10-29T06:37:38.262Z,14.03
2022-10-29T06:40:05.517Z,14.04
2022-10-29T06:42:32.159Z,14.09
2022-10-29T06:44:58.867Z,14.16
2022-10-29T06:47:25.628Z,14.15
2022-10-29T06:49:52.335Z,14.14
2022-10-29T06:52:19.039Z,14.14
2022-10-29T06:54:45.772Z,14.17
2022-10-29T06:57:12.553Z,14.19
2022-10-29T06:59:39.225Z,14.20
2022-10-29T07:02:05.936Z,14.25
2022-10-29T07:04:32.618Z,14.26
2022-10-29T07:06:59.381Z,14.26
2022-10-29T07:09:29.019Z,14.29
2022-10-29T07:11:55.769Z,14.37
2022-10-29T07:14:22.465Z,14.42
2022-10-29T07:16:49.221Z,14.33
2022-10-29T07:19:15.918Z,14.33
2022-10-29T07:21:43.122Z,14.40
2022-10-29T07:24:10.062Z,14.38
2022-10-29T07:26:37.147Z,14.35
2022-10-29T07:29:04.109Z,14.41
2022-10-29T07:31:31.270Z,14.43
2022-10-29T07:33:58.104Z,14.48
2022-10-29T07:36:24.845Z,14.48
2022-10-29T07:38:51.611Z,14.47
2022-10-29T07:41:18.375Z,14.59
2022-10-29T07:43:45.111Z,14.61
2022-10-29T07:46:11.800Z,14.64
2022-10-29T07:48:38.952Z,14.68
2022-10-29T07:51:05.887Z,14.65
2022-10-29T07:53:32.935Z,14.73
2022-10-29T07:55:59.923Z,14.75
2022-10-29T07:58:29.325Z,14.73
2022-10-29T08:00:59.808Z,14.72
2022-10-29T08:03:26.585Z,14.74
2022-10-29T08:05:57.060Z,14.79
2022-10-29T08:08:24.636Z,14.86
2022-10-29T08:10:51.391Z,14.90
2022-10-29T08:13:18.088Z,14.99
2022-10-29T08:15:46.922Z,15.02
2022-10-29T08:18:17.922Z,15.10
2022-10-29T08:20:45.359Z,15.10
2022-10-29T08:23:13.385Z,15.10
2022-10-29T08:25:43.150Z,15.12
2022-10-29T08:28:12.141Z,15.18
2022-10-29T08:30:39.333Z,15.30
2022-10-29T08:33:06.176Z,15.32
2022-10-29T08:35:33.422Z,15.30
2022-10-29T08:38:00.270Z,15.32
2022-10-29T08:41:07.171Z,15.39
2022-10-29T08:43:48.993Z,15.40
2022-10-29T08:46:19.872Z,15.52
2022-10-29T08:48:52.222Z,15.46
2022-10-29T08:51:34.590Z,15.45
2022-10-29T08:54:29.322Z,15.42
2022-10-29T08:59:44.175Z,15.56
2022-10-29T09:02:16.212Z,15.50
2022-10-29T09:04:43.030Z,15.58
2022-10-29T09:07:34.714Z,15.58
2022-10-29T09:10:29.299Z,15.61
2022-10-29T09:13:08.422Z,15.64
2022-10-29T09:15:54.786Z,15.68
2022-10-29T09:18:30.374Z,15.70
2022-10-29T09:21:06.707Z,15.76
2022-10-29T09:23:47.819Z,15.83
2022-10-29T09:26:31.191Z,15.80
2022-10-29T09:29:24.645Z,15.83
2022-10-29T09:32:06.296Z,15.92
2022-10-29T09:34:41.882Z,15.84
2022-10-29T09:37:56.213Z,15.85
2022-10-29T09:40:34.899Z,15.78
2022-10-29T09:43:07.877Z,15.92
2022-10-29T09:46:01.923Z,15.92
2022-10-29T09:49:16.474Z,15.94
2022-10-29T09:52:07.044Z,15.98
2022-10-29T09:54:56.725Z,16.09
2022-10-29T09:57:25.474Z,16.12
2022-10-29T10:00:00.993Z,16.16
2022-10-29T10:02:38.318Z,16.24
2022-10-29T10:05:10.360Z,16.25
2022-10-29T10:07:37.259Z,16.34
2022-10-29T10:10:06.493Z,16.41
2022-10-29T10:12:39.277Z,16.42
2022-10-29T10:15:17.080Z,16.41
2022-10-29T10:17:55.918Z,16.53
2022-10-29T10:20:31.076Z,16.50
2022-10-29T10:22:58.342Z,16.60
2022-10-29T10:25:34.469Z,16.70
2022-10-29T10:28:22.336Z,16.72
2022-10-29T10:31:04.344Z,16.75
2022-10-29T10:33:32.698Z,16.75
2022-10-29T10:36:05.607Z,16.71
2022-10-29T10:38:46.457Z,16.70
2022-10-29T10:41:14.067Z,16.90
2022-10-29T10:43:45.388Z,17.01
2022-10-29T10:46:16.774Z,17.17
2022-10-29T10:48:43.583Z,17.14
2022-10-29T10:51:31.841Z,17.33
2022-10-29T10:53:59.926Z,17.49
2022-10-29T10:56:26.692Z,17.37
2022-10-29T10:59:03.136Z,17.41
2022-10-29T11:01:36.504Z,17.44
2022-10-29T11:04:25.578Z,17.58
2022-10-29T11:06:53.790Z,17.55
2022-10-29T11:09:35.968Z,17.53
2022-10-29T11:12:24.415Z,17.68
2022-10-29T11:14:54.383Z,17.94
2022-10-29T11:17:54.455Z,17.98
2022-10-29T11:20:23.306Z,17.97
2022-10-29T11:23:15.039Z,17.88
2022-10-29T11:25:45.663Z,17.87
2022-10-29T11:28:30.641Z,17.92
2022-10-29T11:31:16.651Z,18.19
2022-10-29T11:33:51.147Z,18.27
2022-10-29T11:36:41.759Z,18.36
2022-10-29T11:39:15.629Z,18.68
2022-10-29T11:41:50.307Z,18.84
2022-10-29T11:44:18.206Z,19.16
2022-10-29T11:47:01.282Z,19.06
2022-10-29T11:49:40.294Z,19.04
2022-10-29T11:52:13.286Z,19.04
2022-10-29T11:55:06.247Z,19.05
2022-10-29T11:57:37.952Z,19.13
2022-10-29T12:00:10.303Z,18.79
2022-10-29T12:02:42.619Z,18.46
2022-10-29T12:05:30.250Z,18.33
2022-10-29T12:08:07.767Z,18.48
2022-10-29T12:11:12.626Z,18.29
2022-10-29T12:14:00.252Z,18.33
2022-10-29T12:16:50.154Z,18.46
2022-10-29T12:19:51.231Z,18.37
2022-10-29T12:22:23.311Z,18.42
2022-10-29T12:25:02.550Z,18.48
2022-10-29T12:27:51.397Z,18.54
2022-10-29T12:30:19.449Z,18.47
2022-10-29T12:32:58.935Z,18.47
2022-10-29T12:35:49.928Z,18.50
2022-10-29T12:38:41.292Z,18.49
2022-10-29T12:41:12.884Z,18.71
2022-10-29T12:43:40.433Z,18.99
2022-10-29T12:46:28.453Z,19.14
2022-10-29T12:49:05.467Z,19.16
2022-10-29T12:51:43.094Z,19.31
2022-10-29T12:54:28.635Z,19.52
2022-10-29T12:56:57.405Z,19.72
2022-10-29T12:59:24.044Z,19.70
2022-10-29T13:02:12.007Z,19.64
2022-10-29T13:04:38.332Z,19.85
2022-10-29T13:07:23.683Z,20.11
2022-10-29T13:10:22.901Z,20.23
2022-10-29T13:12:58.851Z,19.95
2022-10-29T13:15:38.872Z,19.78
2022-10-29T13:18:20.392Z,19.86
2022-10-29T13:20:49.302Z,19.91
2022-10-29T13:23:22.091Z,20.03
2022-10-29T13:25:58.538Z,20.22
2022-10-29T13:28:25.175Z,20.51
2022-10-29T13:31:12.097Z,20.69
2022-10-29T13:33:38.734Z,20.71
2022-10-29T13:36:15.373Z,20.66
2022-10-29T13:39:04.398Z,20.60
2022-10-29T13:41:44.801Z,20.92
2022-10-29T13:44:24.558Z,20.79
2022-10-29T13:47:01.215Z,20.77
2022-10-29T13:49:37.074Z,20.59
2022-10-29T13:52:15.101Z,20.63
2022-10-29T13:55:05.291Z,20.68
2022-10-29T13:57:37.349Z,20.77
2022-10-29T14:00:13.082Z,20.65
2022-10-29T14:02:52.517Z,20.78
2022-10-29T14:05:58.427Z,20.60
2022-10-29T14:09:46.817Z,20.53
2022-10-29T14:12:31.758Z,20.63
2022-10-29T14:15:11.739Z,20.56
2022-10-29T14:17:39.995Z,20.82
2022-10-29T14:20:27.745Z,20.85
2022-10-29T14:22:54.744Z,20.99
2022-10-29T14:25:27.196Z,20.96
2022-10-29T14:28:31.623Z,20.95
2022-10-29T14:31:06.998Z,21.06
2022-10-29T14:33:38.643Z,20.91
2022-10-29T14:36:11.828Z,20.78
2022-10-29T14:39:04.796Z,20.60
2022-10-29T14:41:32.227Z,20.46
2022-10-29T14:44:02.018Z,20.35
2022-10-29T14:46:30.419Z,20.32
2022-10-29T14:49:02.073Z,20.25
2022-10-29T14:51:30.306Z,20.11
2022-10-29T14:54:00.778Z,19.85
2022-10-29T14:56:32.074Z,19.61
2022-10-29T14:58:59.231Z,19.54
2022-10-29T15:01:25.992Z,19.46
2022-10-29T15:04:00.715Z,19.40
2022-10-29T15:06:30.801Z,19.35
2022-10-29T15:09:03.898Z,19.31
2022-10-29T15:11:42.534Z,19.24
2022-10-29T15:14:51.769Z,19.16
2022-10-29T15:17:32.124Z,19.13
2022-10-29T15:20:01.898Z,19.06
2022-10-29T15:22:35.544Z,18.95
2022-10-29T15:25:05.531Z,18.83
2022-10-29T15:27:32.528Z,18.69
2022-10-29T15:30:02.697Z,18.59
2022-10-29T15:32:31.505Z,18.46
2022-10-29T15:34:59.735Z,18.33
2022-10-29T15:37:44.287Z,18.21
2022-10-29T15:40:24.100Z,18.12
2022-10-29T15:42:51.165Z,18.10
2022-10-29T15:45:28.136Z,18.05
2022-10-29T15:48:10.070Z,18.00
2022-10-29T15:50:42.195Z,17.83
2022-10-29T15:53:14.248Z,17.75
2022-10-29T15:55:40.979Z,17.78
2022-10-29T15:58:20.146Z,17.76
2022-10-29T16:00:46.863Z,17.80
2022-10-29T16:03:17.471Z,17.72
2022-10-29T16:05:45.730Z,17.54
2022-10-29T16:08:24.745Z,17.61
2022-10-29T16:10:51.763Z,17.63
2022-10-29T16:13:19.222Z,17.63
2022-10-29T16:15:45.867Z,17.64
2022-10-29T16:18:12.540Z,17.67
2022-10-29T16:20:39.208Z,17.64
2022-10-29T16:23:06.009Z,17.60
2022-10-29T16:25:32.993Z,17.62
2022-10-29T16:28:00.137Z,17.57
2022-10-29T16:30:27.160Z,17.56
2022-10-29T16:32:54.847Z,17.54
2022-10-29T16:35:23.947Z,17.53
2022-10-29T16:37:51.711Z,17.49
2022-10-29T16:40:19.601Z,17.50
2022-10-29T16:42:46.748Z,17.48
2022-10-29T16:45:31.944Z,17.40
2022-10-29T16:47:59.104Z,17.40
2022-10-29T16:50:28.781Z,17.26
2022-10-29T16:53:04.060Z,17.24
2022-10-29T16:55:30.725Z,17.25
2022-10-29T16:57:57.831Z,17.21
2022-10-29T17:00:26.111Z,17.19
2022-10-29T17:02:52.912Z,17.20
2022-10-29T17:05:19.593Z,17.18
2022-10-29T17:07:46.279Z,17.12
2022-10-29T17:10:12.930Z,17.07
2022-10-29T17:12:39.655Z,17.08
2022-10-29T17:15:06.930Z,17.12
2022-10-29T17:17:33.586Z,17.10
2022-10-29T17:20:00.322Z,17.12
2022-10-29T17:22:27.015Z,17.11
2022-10-29T17:24:53.685Z,17.06
2022-10-29T17:27:20.488Z,17.07
2022-10-29T17:29:47.202Z,17.02
2022-10-29T17:32:14.129Z,16.98
2022-10-29T17:34:40.793Z,16.94
2022-10-29T17:37:07.985Z,16.94
2022-10-29T17:39:34.818Z,16.89
2022-10-29T17:42:01.543Z,16.87
2022-10-29T17:44:28.277Z,16.87
2022-10-29T17:46:55.207Z,16.87
2022-10-29T17:49:22.256Z,16.82
2022-10-29T17:51:48.949Z,16.80
2022-10-29T17:54:16.380Z,16.81
2022-10-29T17:56:43.587Z,16.79
2022-10-29T17:59:10.521Z,16.78
2022-10-29T18:01:37.309Z,16.77
2022-10-29T18:04:06.950Z,16.73
2022-10-29T18:06:33.665Z,16.73
2022-10-29T18:09:01.147Z,16.72
2022-10-29T18:11:28.163Z,16.71
2022-10-29T18:13:56.911Z,16.71
2022-10-29T18:16:30.166Z,16.64
2022-10-29T18:19:04.768Z,16.61
2022-10-29T18:21:34.701Z,16.58
2022-10-29T18:24:01.577Z,16.56
2022-10-29T18:26:30.887Z,16.57
2022-10-29T18:28:58.905Z,16.53
2022-10-29T18:31:29.989Z,16.57
2022-10-29T18:34:03.262Z,16.61
2022-10-29T18:36:29.972Z,16.60
2022-10-29T18:38:57.464Z,16.62
2022-10-29T18:41:52.901Z,16.59
2022-10-29T18:44:40.152Z,16.56
2022-10-29T18:47:09.534Z,16.60
2022-10-29T18:50:05.658Z,16.55
2022-10-29T18:55:52.190Z,16.54
2022-10-29T18:59:06.465Z,16.56
2022-10-29T19:01:44.830Z,16.44
2022-10-29T19:04:15.709Z,16.49
2022-10-29T19:06:45.738Z,16.50
2022-10-29T19:09:12.584Z,16.47
2022-10-29T19:11:39.448Z,16.49
2022-10-29T19:14:09.655Z,16.48
2022-10-29T19:16:44.109Z,16.46
2022-10-29T19:19:17.230Z,16.43
2022-10-29T19:21:56.206Z,16.42
2022-10-29T19:24:23.029Z,16.43
2022-10-29T19:26:49.750Z,16.42
2022-10-29T19:29:16.707Z,16.38
2022-10-29T19:31:44.892Z,16.38
2022-10-29T19:34:12.006Z,16.38
2022-10-29T19:36:40.336Z,16.33
2022-10-29T19:39:07.649Z,16.33
2022-10-29T19:41:34.518Z,16.33
2022-10-29T19:44:02.803Z,16.28
2022-10-29T19:46:29.800Z,16.27
2022-10-29T19:48:57.952Z,16.26
2022-10-29T19:51:24.797Z,16.29
2022-10-29T19:53:51.736Z,16.32
2022-10-29T19:56:19.214Z,16.33
2022-10-29T19:58:46.159Z,16.34
2022-10-29T20:01:16.341Z,16.35
2022-10-29T20:03:43.524Z,16.33
2022-10-29T20:06:10.243Z,16.34
2022-10-29T20:08:37.378Z,16.29
2022-10-29T20:11:04.355Z,16.26
2022-10-29T20:13:34.210Z,16.26
2022-10-29T20:16:07.787Z,16.24
2022-10-29T20:18:35.589Z,16.27
2022-10-29T20:21:02.339Z,16.29
2022-10-29T20:23:31.915Z,16.31
2022-10-29T20:25:58.600Z,16.32
2022-10-29T20:28:25.440Z,16.28
2022-10-29T20:31:16.623Z,16.20
2022-10-29T20:33:51.323Z,16.20
2022-10-29T20:36:18.267Z,16.20
2022-10-29T20:38:48.497Z,16.21
2022-10-29T20:41:15.534Z,16.18
2022-10-29T20:43:42.196Z,16.11
2022-10-29T20:46:08.855Z,16.12
2022-10-29T20:48:38.599Z,16.14
2022-10-29T20:51:08.131Z,16.10
2022-10-29T20:53:34.875Z,16.10
2022-10-29T20:56:10.288Z,16.12
2022-10-29T20:58:39.954Z,16.12
2022-10-29T21:01:08.197Z,16.10
2022-10-29T21:03:35.392Z,16.09
2022-10-29T21:06:06.360Z,16.06
2022-10-29T21:08:33.434Z,16.03
2022-10-29T21:11:01.804Z,16.00
2022-10-29T21:13:29.129Z,15.99
2022-10-29T21:15:56.357Z,16.00
2022-10-29T21:18:23.077Z,15.99
2022-10-29T21:20:49.811Z,15.97
2022-10-29T21:23:19.923Z,15.97
2022-10-29T21:25:53.962Z,15.98
2022-10-29T21:28:20.681Z,15.93
2022-10-29T21:30:47.350Z,15.95
2022-10-29T21:33:14.009Z,15.93
2022-10-29T21:35:41.043Z,15.92
2022-10-29T21:38:07.742Z,15.89
2022-10-29T21:40:34.431Z,15.89
2022-10-29T21:43:01.077Z,15.83
2022-10-29T21:45:27.724Z,15.81
2022-10-29T21:47:54.559Z,15.81
2022-10-29T21:50:24.302Z,15.79
2022-10-29T21:52:51.013Z,15.78
2022-10-29T21:55:17.668Z,15.78
2022-10-29T21:57:44.813Z,15.77
2022-10-29T22:00:13.607Z,15.77
2022-10-29T22:02:40.265Z,15.76
2022-10-29T22:05:07.572Z,15.77
2022-10-29T22:07:34.786Z,15.77
2022-10-29T22:10:01.832Z,15.77
2022-10-29T22:12:28.563Z,15.77
2022-10-29T22:14:55.255Z,15.75
2022-10-29T22:17:21.958Z,15.75
2022-10-29T22:19:48.675Z,15.73
2022-10-29T22:22:15.389Z,15.71
2022-10-29T22:24:42.024Z,15.67
2022-10-29T22:27:08.673Z,15.71
2022-10-29T22:29:35.361Z,15.69
2022-10-29T22:32:02.106Z,15.64
2022-10-29T22:34:28.824Z,15.64
2022-10-29T22:36:55.519Z,15.64
2022-10-29T22:39:22.260Z,15.68
2022-10-29T22:41:48.974Z,15.66
2022-10-29T22:44:15.612Z,15.67
2022-10-29T22:46:42.298Z,15.67
2022-10-29T22:49:09.094Z,15.63
2022-10-29T22:51:35.975Z,15.62
2022-10-29T22:54:02.874Z,15.59
2022-10-29T22:56:33.148Z,15.59
2022-10-29T22:59:00.908Z,15.58
2022-10-29T23:01:32.379Z,15.57
2022-10-29T23:03:59.535Z,15.57
2022-10-29T23:06:26.927Z,15.58
2022-10-29T23:08:55.663Z,15.52
2022-10-29T23:11:27.276Z,15.55
2022-10-29T23:13:55.917Z,15.57
2022-10-29T23:16:23.826Z,15.54
2022-10-29T23:18:51.981Z,15.56
2022-10-29T23:21:19.152Z,15.52
2022-10-29T23:23:46.395Z,15.49
2022-10-29T23:26:14.995Z,15.44
2022-10-29T23:28:42.077Z,15.39
2022-10-29T23:31:14.475Z,15.44
2022-10-29T23:33:44.751Z,15.43
2022-10-29T23:36:12.148Z,15.39
2022-10-29T23:38:38.895Z,15.38
2022-10-29T23:41:05.707Z,15.36
2022-10-29T23:43:32.381Z,15.33
2022-10-29T23:45:59.033Z,15.37
2022-10-29T23:48:25.747Z,15.39
2022-10-29T23:50:52.488Z,15.38
2022-10-29T23:53:19.786Z,15.38
2022-10-29T23:55:46.769Z,15.33
2022-10-29T23:58:13.992Z,15.31
